Time;durP1;ratioP1;P1;durP2;ratioP2;P2;SDS_P1;SDS_P2;PMS_P1;PMS_P2;Temp;Humidity;BMP_temperature;BMP_pressure;BME280_temperature;BME280_humidity;BME280_pressure;Samples;Min_cycle;Max_cycle;Signal;HPM_P1;HPM_P2
2021/01/11 00:01:08;;;;;;;82.63;34.90;;;;;;;4.58;100.00;101259.75;4951763;29;20066;-79
2021/01/11 00:03:34;;;;;;;83.90;33.63;;;;;;;4.68;100.00;101261.41;4951655;28;20042;-79
2021/01/11 00:05:59;;;;;;;80.40;33.13;;;;;;;4.66;100.00;101268.94;4956003;29;20035;-79
2021/01/11 00:08:25;;;;;;;84.28;35.35;;;;;;;4.66;100.00;101265.47;4950080;29;20408;-79
2021/01/11 00:10:50;;;;;;;82.57;34.70;;;;;;;4.65;100.00;101266.53;4960725;28;20110;-80
2021/01/11 00:13:16;;;;;;;83.95;34.38;;;;;;;4.68;100.00;101260.63;4946478;29;20043;-80
2021/01/11 00:15:41;;;;;;;80.45;34.17;;;;;;;4.68;100.00;101258.75;4946472;29;20511;-79
2021/01/11 00:18:07;;;;;;;79.32;33.30;;;;;;;4.62;100.00;101264.47;4952691;29;20052;-79
2021/01/11 00:20:32;;;;;;;81.75;34.67;;;;;;;4.68;100.00;101266.75;4953143;28;20545;-78
2021/01/11 00:22:58;;;;;;;81.65;33.22;;;;;;;4.67;100.00;101264.38;4946804;29;20065;-79
2021/01/11 00:25:23;;;;;;;97.32;35.10;;;;;;;4.68;100.00;101258.75;4939446;29;20071;-80
2021/01/11 00:27:49;;;;;;;87.13;35.55;;;;;;;4.65;100.00;101247.88;4939853;29;20415;-79
2021/01/11 00:30:18;;;;;;;79.40;33.25;;;;;;;4.64;100.00;101259.66;4939898;28;20039;-78
2021/01/11 00:32:44;;;;;;;89.32;36.15;;;;;;;4.63;100.00;101255.41;4931871;29;20110;-78
2021/01/11 00:35:09;;;;;;;80.32;33.88;;;;;;;4.59;100.00;101248.00;4954705;29;20505;-78
2021/01/11 00:37:36;;;;;;;82.05;33.25;;;;;;;4.58;100.00;101251.75;4955677;28;20027;-79
2021/01/11 00:40:03;;;;;;;84.03;34.63;;;;;;;4.57;100.00;101246.72;4955357;28;20415;-78
2021/01/11 00:42:32;;;;;;;81.15;34.13;;;;;;;4.60;100.00;101248.78;4955385;28;20065;-79
2021/01/11 00:44:58;;;;;;;81.43;33.03;;;;;;;4.72;100.00;101243.72;4937235;29;20035;-80
2021/01/11 00:47:23;;;;;;;86.13;32.75;;;;;;;4.83;100.00;101244.28;4955104;28;20507;-80
2021/01/11 00:49:49;;;;;;;95.70;34.22;;;;;;;4.75;100.00;101247.66;4939500;29;20038;-79
2021/01/11 00:52:14;;;;;;;98.03;35.20;;;;;;;4.73;100.00;101245.28;4941509;29;20031;-79
2021/01/11 00:54:40;;;;;;;93.00;34.05;;;;;;;4.72;100.00;101254.41;4939797;29;20038;-80
2021/01/11 00:57:10;;;;;;;96.72;35.67;;;;;;;4.84;100.00;101257.31;4959278;28;20031;-80
2021/01/11 00:59:46;;;;;;;87.80;33.38;;;;;;;4.65;100.00;101253.22;4950578;29;20412;-79
2021/01/11 01:02:16;;;;;;;90.20;34.45;;;;;;;4.74;100.00;101246.09;4946484;28;20027;-78
2021/01/11 01:04:42;;;;;;;89.75;33.25;;;;;;;4.72;100.00;101243.72;4961494;28;20053;-77
2021/01/11 01:07:07;;;;;;;95.90;33.03;;;;;;;4.75;100.00;101253.78;4940502;29;20070;-77
2021/01/11 01:09:33;;;;;;;98.85;35.15;;;;;;;4.61;100.00;101249.59;4972847;28;20035;-77
2021/01/11 01:11:59;;;;;;;93.38;34.45;;;;;;;4.74;100.00;101238.88;4970696;28;20035;-77
2021/01/11 01:14:25;;;;;;;96.40;33.88;;;;;;;4.68;100.00;101242.75;4939558;29;20539;-77
2021/01/11 01:16:51;;;;;;;96.55;34.80;;;;;;;4.70;100.00;101250.44;4932109;29;20043;-78
2021/01/11 01:19:17;;;;;;;91.78;33.03;;;;;;;4.71;100.00;101238.69;4937814;29;20035;-77
2021/01/11 01:21:42;;;;;;;98.13;34.40;;;;;;;4.78;100.00;101237.16;4938966;29;20448;-78
2021/01/11 01:24:08;;;;;;;111.40;35.33;;;;;;;4.84;100.00;101243.97;4954292;29;20054;-78
2021/01/11 01:26:33;;;;;;;118.13;36.20;;;;;;;4.87;100.00;101227.38;4954041;29;20090;-78
2021/01/11 01:28:59;;;;;;;106.53;37.17;;;;;;;4.75;100.00;101237.00;4951858;29;20424;-78
2021/01/11 01:31:24;;;;;;;107.15;35.30;;;;;;;4.76;100.00;101227.91;4955016;29;20054;-79
2021/01/11 01:33:50;;;;;;;98.43;33.05;;;;;;;4.72;100.00;101226.94;4956667;29;20078;-79
2021/01/11 01:36:18;;;;;;;108.28;34.60;;;;;;;4.80;100.00;101229.66;4955839;29;20027;-79
2021/01/11 01:38:44;;;;;;;110.47;36.13;;;;;;;4.82;100.00;101219.47;4940300;29;20122;-80
2021/01/11 01:41:09;;;;;;;108.95;34.72;;;;;;;4.76;100.00;101236.72;4953428;29;20070;-79
2021/01/11 01:43:35;;;;;;;100.30;33.13;;;;;;;4.76;100.00;101238.56;4945799;28;20027;-79
2021/01/11 01:46:03;;;;;;;108.60;34.45;;;;;;;4.70;100.00;101229.09;4957421;28;20429;-80
2021/01/11 01:48:29;;;;;;;102.43;35.15;;;;;;;4.81;100.00;101225.13;4959980;28;20038;-80
2021/01/11 01:50:54;;;;;;;109.97;35.08;;;;;;;4.81;100.00;101228.56;4952161;29;20623;-78
2021/01/11 01:53:21;;;;;;;106.57;34.50;;;;;;;4.78;100.00;101231.84;4955763;29;20404;-78
2021/01/11 01:55:46;;;;;;;104.30;33.47;;;;;;;4.81;100.00;101231.25;4941776;28;20046;-78
2021/01/11 01:58:16;;;;;;;101.80;34.88;;;;;;;4.86;100.00;101233.03;4939454;29;20035;-78
2021/01/11 02:00:42;;;;;;;111.47;35.13;;;;;;;4.83;100.00;101226.41;4966268;28;20044;-78
2021/01/11 02:03:07;;;;;;;102.57;33.35;;;;;;;4.81;100.00;101231.25;4939643;29;20035;-78
2021/01/11 02:05:33;;;;;;;110.72;34.20;;;;;;;4.90;100.00;101234.75;4954882;29;20675;-78
2021/01/11 02:08:30;;;;;;;102.60;34.08;;;;;;;4.85;100.00;101236.75;4955236;28;20096;-78
2021/01/11 02:11:38;;;;;;;109.35;34.53;;;;;;;4.82;100.00;101230.13;4954751;29;20422;-78
2021/01/11 02:14:09;;;;;;;119.22;35.58;;;;;;;4.91;100.00;101224.88;4950239;29;20034;-78
2021/01/11 02:17:12;;;;;;;112.88;35.47;;;;;;;4.87;100.00;101218.56;4954561;29;20041;-78
2021/01/11 02:19:59;;;;;;;114.20;36.95;;;;;;;4.85;100.00;101221.56;4953943;29;20043;-78
2021/01/11 02:23:11;;;;;;;126.28;36.42;;;;;;;4.78;100.00;101226.50;4965038;29;20186;-78
2021/01/11 02:25:52;;;;;;;;;;;;;;;4.78;100.00;101217.72;4949630;29;20035;-78
2021/01/11 02:28:37;;;;;;;103.90;34.47;;;;;;;4.68;100.00;101225.94;4958145;28;19914;-77
2021/01/11 02:31:05;;;;;;;102.18;35.58;;;;;;;4.79;100.00;101221.97;4951694;29;20095;-76
2021/01/11 02:33:33;;;;;;;114.78;36.45;;;;;;;4.81;100.00;101215.25;4948221;28;20404;-78
2021/01/11 02:36:06;;;;;;;113.85;37.42;;;;;;;4.88;100.00;101220.16;4967024;28;20055;-77
2021/01/11 02:38:33;;;;;;;114.80;37.20;;;;;;;4.80;100.00;101218.22;4947110;29;20480;-77
2021/01/11 02:40:59;;;;;;;110.40;35.13;;;;;;;4.70;100.00;101200.56;4949453;29;20047;-77
2021/01/11 02:43:25;;;;;;;123.40;37.80;;;;;;;4.81;100.00;101201.91;4938495;28;20136;-77
2021/01/11 02:45:51;;;;;;;118.60;37.33;;;;;;;4.70;100.00;101203.22;4962890;28;20047;-77
2021/01/11 02:48:34;;;;;;;120.70;38.95;;;;;;;4.74;100.00;101206.09;4937645;29;20023;-77
2021/01/11 02:51:02;;;;;;;123.03;37.08;;;;;;;4.82;100.00;101206.13;4939766;29;20043;-77
2021/01/11 02:53:37;;;;;;;113.65;36.80;;;;;;;4.73;100.00;101202.63;4951590;29;20031;-77
2021/01/11 02:56:05;;;;;;;118.65;38.15;;;;;;;4.73;100.00;101199.16;4951760;28;20121;-77
2021/01/11 02:58:48;;;;;;;110.82;38.10;;;;;;;4.76;100.00;101196.69;4953077;29;20035;-77
2021/01/11 03:01:17;;;;;;;122.20;39.40;;;;;;;4.83;100.00;101191.72;4954439;29;20038;-77
2021/01/11 03:03:53;;;;;;;118.28;39.05;;;;;;;4.80;100.00;101191.53;4955615;28;20035;-77
2021/01/11 03:06:19;;;;;;;128.90;40.10;;;;;;;4.75;100.00;101199.66;4953605;29;20090;-77
2021/01/11 03:08:44;;;;;;;112.43;39.35;;;;;;;4.76;100.00;101186.03;4932265;29;20035;-77
2021/01/11 03:11:10;;;;;;;122.90;40.03;;;;;;;4.82;100.00;101189.38;4954467;29;20094;-76
2021/01/11 03:13:36;;;;;;;116.78;39.55;;;;;;;4.87;100.00;101187.34;4937087;29;20032;-76
2021/01/11 03:16:01;;;;;;;125.65;40.50;;;;;;;4.81;100.00;101185.09;4951914;29;20042;-77
2021/01/11 03:18:26;;;;;;;114.07;39.63;;;;;;;4.71;100.00;101180.00;4933602;29;20032;-77
2021/01/11 03:20:52;;;;;;;108.45;39.25;;;;;;;4.74;100.00;101185.53;4935824;29;20386;-78
2021/01/11 03:23:17;;;;;;;126.80;41.88;;;;;;;4.76;100.00;101177.22;4951077;29;20035;-77
2021/01/11 03:25:43;;;;;;;133.02;42.53;;;;;;;4.78;100.00;101177.72;4954562;28;20039;-76
2021/01/11 03:28:09;;;;;;;138.40;41.72;;;;;;;4.67;100.00;101176.34;4956512;28;20393;-77
2021/01/11 03:30:34;;;;;;;129.00;41.50;;;;;;;4.74;100.00;101172.19;4947567;29;20110;-77
2021/01/11 03:33:00;;;;;;;131.15;43.00;;;;;;;4.72;100.00;101174.38;4956933;29;20440;-77
2021/01/11 03:35:26;;;;;;;133.93;42.42;;;;;;;4.72;100.00;101169.06;4956341;29;20054;-77
2021/01/11 03:37:51;;;;;;;145.57;44.33;;;;;;;4.68;100.00;101167.28;4936524;29;20130;-77
2021/01/11 03:40:17;;;;;;;153.73;46.10;;;;;;;4.74;100.00;101150.06;4936307;29;20111;-77
2021/01/11 03:42:42;;;;;;;156.27;44.17;;;;;;;4.67;100.00;101152.34;4953767;29;20504;-76
2021/01/11 03:45:29;;;;;;;152.45;45.03;;;;;;;4.79;100.00;101156.06;4937655;29;20085;-76
2021/01/11 03:47:55;;;;;;;152.90;44.47;;;;;;;4.81;100.00;101145.09;4845908;29;20076;-77
2021/01/11 03:50:20;;;;;;;156.25;45.05;;;;;;;4.83;100.00;101149.03;4870928;29;20495;-77
2021/01/11 03:52:46;;;;;;;159.65;44.55;;;;;;;4.77;100.00;101144.91;4863902;29;20049;-77
2021/01/11 03:55:12;;;;;;;149.25;44.88;;;;;;;4.69;100.00;101131.50;4881181;29;20044;-77
2021/01/11 03:57:37;;;;;;;154.15;43.40;;;;;;;4.85;100.00;101140.72;4853518;29;20049;-76
2021/01/11 04:00:05;;;;;;;138.48;44.40;;;;;;;4.61;100.00;101141.03;4863145;29;20048;-77
2021/01/11 04:02:56;;;;;;;141.43;42.13;;;;;;;4.73;100.00;101138.59;4866953;29;20041;-77
2021/01/11 04:05:22;;;;;;;154.73;45.13;;;;;;;4.73;100.00;101127.94;4842154;29;20061;-77
2021/01/11 04:07:47;;;;;;;160.30;45.55;;;;;;;4.76;100.00;101126.56;4842656;29;20046;-77
2021/01/11 04:10:13;;;;;;;150.75;46.13;;;;;;;4.75;100.00;101117.75;4833267;29;20108;-77
2021/01/11 04:12:38;;;;;;;157.52;43.33;;;;;;;4.80;100.00;101128.28;4837873;29;20054;-77
2021/01/11 04:15:05;;;;;;;165.80;46.67;;;;;;;4.83;100.00;101113.56;4827207;29;20226;-78
2021/01/11 04:17:30;;;;;;;159.88;45.83;;;;;;;4.70;100.00;101123.22;4848821;29;22008;-78
2021/01/11 04:19:55;;;;;;;164.00;43.53;;;;;;;4.73;100.00;101114.59;4824776;29;20132;-78
2021/01/11 04:22:21;;;;;;;151.90;43.60;;;;;;;4.69;100.00;101112.84;4822875;29;20058;-77
2021/01/11 04:24:46;;;;;;;156.65;45.38;;;;;;;4.81;100.00;101116.53;4841439;29;20048;-78
2021/01/11 04:27:12;;;;;;;169.02;46.13;;;;;;;4.89;100.00;101113.16;4880466;29;20040;-77
2021/01/11 04:29:37;;;;;;;175.75;46.35;;;;;;;4.85;100.00;101106.03;4912712;29;20040;-78
2021/01/11 04:32:03;;;;;;;174.80;47.08;;;;;;;4.81;100.00;101115.75;4897660;29;20126;-77
2021/01/11 04:34:28;;;;;;;161.05;45.75;;;;;;;4.78;100.00;101105.69;4894708;29;20053;-78
2021/01/11 04:36:57;;;;;;;168.75;45.20;;;;;;;4.74;100.00;101099.38;4909891;29;20048;-78
2021/01/11 04:39:22;;;;;;;161.13;44.42;;;;;;;4.73;100.00;101101.25;4897128;29;20080;-78
2021/01/11 04:41:49;;;;;;;165.57;45.38;;;;;;;4.75;100.00;101107.09;4919591;28;20054;-78
2021/01/11 04:44:19;;;;;;;151.63;45.03;;;;;;;4.78;100.00;101093.13;4928680;29;20069;-77
2021/01/11 04:46:47;;;;;;;162.20;45.08;;;;;;;4.75;100.00;101098.28;4970935;28;20031;-77
2021/01/11 04:49:13;;;;;;;154.23;44.53;;;;;;;4.79;100.00;101094.72;4937337;29;20046;-77
2021/01/11 04:51:40;;;;;;;161.95;45.75;;;;;;;4.76;100.00;101086.53;4945281;29;20031;-78
2021/01/11 04:54:08;;;;;;;160.60;45.20;;;;;;;4.75;100.00;101082.28;4955901;29;20059;-77
2021/01/11 04:56:39;;;;;;;142.60;42.75;;;;;;;4.60;100.00;101088.78;4931740;29;622746;-77
2021/01/11 04:59:07;;;;;;;152.95;43.55;;;;;;;4.68;100.00;101074.72;4956745;29;20557;-78
2021/01/11 05:01:52;;;;;;;148.20;43.83;;;;;;;4.65;100.00;101074.53;4934665;29;20035;-77
2021/01/11 05:04:18;;;;;;;156.95;44.03;;;;;;;4.72;100.00;101075.69;4895461;29;20052;-77
2021/01/11 05:06:48;;;;;;;151.18;43.88;;;;;;;4.78;100.00;101076.34;4908146;29;20048;-77
2021/01/11 05:09:16;;;;;;;140.40;42.67;;;;;;;4.65;100.00;101069.19;4892399;29;20051;-78
2021/01/11 05:11:42;;;;;;;145.45;42.15;;;;;;;4.69;100.00;101062.16;4896936;29;20502;-77
2021/01/11 05:14:15;;;;;;;128.15;40.00;;;;;;;4.62;100.00;101061.81;4877108;29;20047;-77
2021/01/11 05:16:40;;;;;;;144.90;42.20;;;;;;;4.67;100.00;101067.81;4890492;29;20509;-77
2021/01/11 05:19:25;;;;;;;137.00;40.85;;;;;;;4.68;100.00;101060.59;4905203;29;20047;-78
2021/01/11 05:21:52;;;;;;;125.32;41.75;;;;;;;4.65;100.00;101056.66;4901915;29;20056;-77
2021/01/11 05:24:37;;;;;;;126.50;40.42;;;;;;;4.71;100.00;101058.09;4894732;29;20040;-78
2021/01/11 05:27:27;;;;;;;126.50;40.72;;;;;;;4.70;100.00;101042.41;4876476;29;20097;-77
2021/01/11 05:29:52;;;;;;;131.02;42.30;;;;;;;4.71;100.00;101036.78;4830782;29;20042;-77
2021/01/11 05:32:25;;;;;;;133.35;41.03;;;;;;;4.64;100.00;101040.97;4839174;29;20060;-77
2021/01/11 05:34:53;;;;;;;120.50;38.78;;;;;;;4.62;100.00;101035.94;4837451;29;20183;-77
2021/01/11 05:37:36;;;;;;;126.53;40.75;;;;;;;4.61;100.00;101026.34;4818944;29;20515;-77
2021/01/11 05:40:15;;;;;;;125.90;39.00;;;;;;;4.79;100.00;101041.38;4837975;29;20044;-77
2021/01/11 05:42:42;;;;;;;117.18;39.28;;;;;;;4.61;100.00;101028.25;4874315;29;20065;-78
2021/01/11 05:45:11;;;;;;;121.80;40.15;;;;;;;4.57;100.00;101028.84;4867455;29;20048;-77
2021/01/11 05:48:08;;;;;;;110.20;37.67;;;;;;;4.65;100.00;101029.19;4851581;29;20491;-77
2021/01/11 05:50:39;;;;;;;109.75;37.95;;;;;;;4.52;100.00;101031.66;4868804;29;21810;-77
2021/01/11 05:53:13;;;;;;;107.68;38.80;;;;;;;4.50;100.00;101027.72;4864456;29;20033;-77
2021/01/11 05:55:39;;;;;;;117.22;38.25;;;;;;;4.62;100.00;101019.94;4855160;29;20174;-77
2021/01/11 05:58:25;;;;;;;113.25;37.95;;;;;;;4.59;100.00;101020.53;4845213;29;20033;-77
2021/01/11 06:00:51;;;;;;;114.05;37.63;;;;;;;4.63;100.00;101021.50;4844952;29;20060;-77
2021/01/11 06:03:19;;;;;;;110.57;38.47;;;;;;;4.51;100.00;101024.72;4834878;29;20045;-78
2021/01/11 06:05:44;;;;;;;108.70;37.83;;;;;;;4.64;100.00;101016.97;4835847;29;20495;-77
2021/01/11 06:08:12;;;;;;;117.00;37.13;;;;;;;4.72;100.00;101025.03;4851775;29;20029;-78
2021/01/11 06:10:38;;;;;;;118.88;37.83;;;;;;;4.65;100.00;101021.97;4853078;29;20037;-77
2021/01/11 06:13:08;;;;;;;122.80;38.67;;;;;;;4.68;100.00;101017.94;4867749;29;20055;-78
2021/01/11 06:15:34;;;;;;;117.32;37.08;;;;;;;4.66;100.00;101012.91;4865290;29;20033;-77
2021/01/11 06:18:01;;;;;;;112.50;38.80;;;;;;;4.61;100.00;101021.03;4873347;29;20069;-79
2021/01/11 06:20:30;;;;;;;116.50;37.53;;;;;;;4.72;100.00;101025.03;4870733;29;20040;-78
2021/01/11 06:22:56;;;;;;;113.75;38.63;;;;;;;4.74;100.00;101024.72;4875760;29;20036;-79
2021/01/11 06:25:24;;;;;;;118.65;37.97;;;;;;;4.65;100.00;101021.97;4867926;29;20059;-79
2021/01/11 06:27:53;;;;;;;115.00;36.35;;;;;;;4.69;100.00;101019.50;4881813;29;20372;-79
2021/01/11 06:30:38;;;;;;;121.60;37.25;;;;;;;4.66;100.00;101020.91;4874576;29;20048;-79
2021/01/11 06:33:09;;;;;;;112.05;35.88;;;;;;;4.55;100.00;101011.56;4879257;29;20048;-79
2021/01/11 06:35:42;;;;;;;119.85;37.78;;;;;;;4.65;100.00;101005.97;4864376;29;20037;-78
2021/01/11 06:38:25;;;;;;;105.78;34.55;;;;;;;4.64;100.00;101016.97;4924716;29;20130;-79
2021/01/11 06:41:11;;;;;;;113.82;36.75;;;;;;;4.48;100.00;101008.56;4948658;29;20493;-79
2021/01/11 06:43:39;;;;;;;102.72;34.15;;;;;;;4.49;100.00;101004.81;4947810;29;20042;-79
2021/01/11 06:46:05;;;;;;;106.40;35.42;;;;;;;4.64;100.00;101001.75;4939639;29;20386;-79
2021/01/11 06:48:54;;;;;;;102.78;34.03;;;;;;;4.55;100.00;101004.38;4928521;29;20174;-76
2021/01/11 06:51:29;;;;;;;92.53;32.17;;;;;;;4.49;100.00;101008.25;4870613;29;20045;-79
2021/01/11 06:54:09;;;;;;;94.45;31.70;;;;;;;4.49;100.00;101010.91;4864994;29;20049;-78
2021/01/11 06:56:36;;;;;;;92.20;30.73;;;;;;;4.64;100.00;100999.09;4872926;29;20045;-80
2021/01/11 06:59:13;;;;;;;95.07;31.90;;;;;;;4.54;100.00;101008.13;4851852;29;20041;-79
2021/01/11 07:01:40;;;;;;;90.38;32.42;;;;;;;4.65;100.00;101011.31;4872665;29;20044;-78
2021/01/11 07:04:07;;;;;;;86.68;30.67;;;;;;;4.60;100.00;101006.13;4885484;29;20031;-77
2021/01/11 07:06:36;;;;;;;80.38;28.92;;;;;;;4.64;100.00;101000.97;4876613;29;20037;-78
2021/01/11 07:09:12;;;;;;;74.72;28.27;;;;;;;4.62;100.00;101009.28;4884372;29;20055;-78
2021/01/11 07:11:42;;;;;;;75.95;27.48;;;;;;;4.69;100.00;101008.81;4867403;29;20045;-78
2021/01/11 07:14:12;;;;;;;75.90;27.55;;;;;;;4.54;100.00;101002.81;4863223;29;20060;-78
2021/01/11 07:16:45;;;;;;;75.80;27.30;;;;;;;4.60;100.00;101008.78;4876849;29;20207;-78
2021/01/11 07:19:19;;;;;;;74.97;26.73;;;;;;;4.65;100.00;100997.19;4854653;29;20108;-77
2021/01/11 07:22:09;;;;;;;73.95;27.80;;;;;;;4.64;100.00;100995.63;4864259;29;20672;-78
2021/01/11 07:24:40;;;;;;;71.47;26.73;;;;;;;4.51;100.00;100992.75;4842986;29;20191;-77
2021/01/11 07:27:09;;;;;;;64.75;25.27;;;;;;;4.50;100.00;100987.72;4839950;29;20045;-78
2021/01/11 07:29:35;;;;;;;67.50;26.10;;;;;;;4.52;100.00;101005.00;4892746;29;20032;-77
2021/01/11 07:32:02;;;;;;;65.97;25.60;;;;;;;4.30;100.00;100998.88;4877558;29;20463;-78
2021/01/11 07:34:27;;;;;;;57.50;23.73;;;;;;;4.21;100.00;100998.84;4897745;29;20037;-78
2021/01/11 07:36:55;;;;;;;55.58;23.55;;;;;;;4.20;100.00;100983.16;4895973;29;20577;-77
2021/01/11 07:39:28;;;;;;;57.22;23.38;;;;;;;4.20;100.00;100991.16;4892909;29;20100;-79
2021/01/11 07:42:01;;;;;;;61.53;23.80;;;;;;;4.11;100.00;100985.75;4897983;29;20104;-80
2021/01/11 07:44:31;;;;;;;60.90;24.38;;;;;;;4.12;100.00;100994.53;4895140;29;20103;-78
2021/01/11 07:47:09;;;;;;;55.92;22.88;;;;;;;4.08;100.00;100983.69;4898132;29;20052;-76
2021/01/11 07:49:39;;;;;;;59.78;23.20;;;;;;;4.17;100.00;100987.22;4890549;29;20056;-79
2021/01/11 07:52:12;;;;;;;61.63;23.05;;;;;;;4.26;100.00;100982.72;4893605;29;20096;-80
2021/01/11 07:54:41;;;;;;;58.38;22.92;;;;;;;4.14;100.00;100984.38;4872383;29;20469;-80
2021/01/11 07:57:11;;;;;;;54.10;22.38;;;;;;;4.18;100.00;100986.09;4896762;29;20116;-80
2021/01/11 07:59:38;;;;;;;50.30;22.13;;;;;;;4.07;100.00;100976.00;4894885;29;20182;-79
2021/01/11 08:02:21;;;;;;;59.22;23.02;;;;;;;4.14;100.00;100982.47;4938431;29;20051;-80
2021/01/11 08:04:47;;;;;;;53.63;23.10;;;;;;;4.17;100.00;100983.75;4947343;29;20043;-78
2021/01/11 08:07:13;;;;;;;62.90;23.75;;;;;;;4.21;100.00;100976.72;4935568;29;20105;-79
2021/01/11 08:09:41;;;;;;;51.00;22.98;;;;;;;4.21;100.00;100977.50;4951928;28;20054;-78
2021/01/11 08:12:07;;;;;;;55.05;23.08;;;;;;;4.18;100.00;100970.13;4940080;29;20035;-80
2021/01/11 08:14:32;;;;;;;58.15;23.13;;;;;;;4.24;100.00;100966.22;4955168;29;20596;-80
2021/01/11 08:17:18;;;;;;;54.67;21.77;;;;;;;3.99;100.00;100966.09;4934932;29;20054;-77
2021/01/11 08:19:57;;;;;;;50.80;20.90;;;;;;;3.77;100.00;100961.53;4879287;29;20048;-79
2021/01/11 08:22:24;;;;;;;53.30;22.35;;;;;;;3.90;100.00;100965.22;4903009;29;20105;-80
2021/01/11 08:24:54;;;;;;;51.95;22.00;;;;;;;3.98;100.00;100954.63;4917652;29;20066;-78
2021/01/11 08:27:44;;;;;;;57.13;22.83;;;;;;;3.87;100.00;100955.19;4883475;29;20120;-77
2021/01/11 08:30:12;;;;;;;57.13;23.23;;;;;;;3.86;100.00;100964.25;4903861;29;20044;-79
2021/01/11 08:32:39;;;;;;;51.75;21.52;;;;;;;3.96;100.00;100958.69;4918896;29;20549;-77
2021/01/11 08:35:08;;;;;;;51.15;23.10;;;;;;;4.08;100.00;100969.59;4894880;29;20099;-80
2021/01/11 08:37:33;;;;;;;56.10;23.13;;;;;;;3.98;100.00;100964.50;4893061;29;20183;-79
2021/01/11 08:40:02;;;;;;;57.58;24.42;;;;;;;4.04;100.00;100960.63;4917372;29;20588;-78
2021/01/11 08:42:28;;;;;;;54.40;23.23;;;;;;;3.95;100.00;100962.44;4904547;29;20140;-80
2021/01/11 08:44:54;;;;;;;53.83;23.27;;;;;;;4.09;100.00;100952.50;4904144;29;20079;-78
2021/01/11 08:47:27;;;;;;;59.75;23.45;;;;;;;4.01;100.00;100961.22;4914327;29;21112;-78
2021/01/11 08:50:00;;;;;;;52.40;23.02;;;;;;;3.77;100.00;100958.88;4893547;29;20059;-78
2021/01/11 08:52:34;;;;;;;56.03;23.70;;;;;;;3.82;100.00;100952.63;4903437;29;20099;-77
2021/01/11 08:55:12;;;;;;;58.50;24.55;;;;;;;3.89;100.00;100958.31;4897522;29;20198;-76
2021/01/11 08:57:39;;;;;;;58.42;23.65;;;;;;;3.94;100.00;100955.53;4944712;29;20471;-79
2021/01/11 09:00:12;;;;;;;53.03;24.55;;;;;;;3.88;100.00;100954.06;4951685;28;20094;-78
2021/01/11 09:02:46;;;;;;;56.85;24.83;;;;;;;3.81;100.00;100962.50;4938789;28;20122;-80
2021/01/11 09:05:18;;;;;;;54.20;23.58;;;;;;;3.82;100.00;100947.28;4938306;29;20034;-80
2021/01/11 09:07:45;;;;;;;56.25;24.23;;;;;;;3.94;100.00;100952.88;4951262;29;20028;-81
2021/01/11 09:10:42;;;;;;;62.72;26.67;;;;;;;3.82;100.00;100955.28;4931939;29;20031;-80
2021/01/11 09:13:22;;;;;;;58.90;24.85;;;;;;;3.85;100.00;100958.16;4946897;28;20493;-80
2021/01/11 09:15:48;;;;;;;55.63;24.48;;;;;;;3.73;100.00;100955.22;4946696;29;20521;-80
2021/01/11 09:18:14;;;;;;;64.68;26.25;;;;;;;3.86;100.00;100956.25;4936263;29;20049;-80
2021/01/11 09:20:44;;;;;;;54.60;24.35;;;;;;;3.84;100.00;100959.22;4930876;29;20106;-80
2021/01/11 09:23:12;;;;;;;61.53;24.93;;;;;;;3.92;100.00;100957.72;4943731;28;20104;-78
2021/01/11 09:25:41;;;;;;;67.22;26.55;;;;;;;3.91;100.00;100959.59;4953231;28;20038;-77
2021/01/11 09:28:08;;;;;;;59.70;25.52;;;;;;;3.93;100.00;100960.06;4943745;29;20019;-80
2021/01/11 09:30:35;;;;;;;73.25;26.88;;;;;;;4.02;100.00;100958.28;4956968;28;20050;-80
2021/01/11 09:33:02;;;;;;;72.80;28.30;;;;;;;4.02;100.00;100958.28;4933040;29;20608;-79
2021/01/11 09:35:28;;;;;;;73.82;29.13;;;;;;;3.99;100.00;100958.09;4934366;29;20032;-79
2021/01/11 09:37:54;;;;;;;71.07;27.13;;;;;;;3.96;100.00;100942.69;4930940;29;20061;-79
2021/01/11 09:40:22;;;;;;;79.47;30.35;;;;;;;4.06;100.00;100953.13;4950298;28;20065;-81
2021/01/11 09:42:48;;;;;;;75.75;29.35;;;;;;;3.95;100.00;100952.56;4946305;29;20075;-80
2021/01/11 09:45:15;;;;;;;75.30;28.58;;;;;;;3.96;100.00;100942.69;4943500;29;20034;-80
2021/01/11 09:47:43;;;;;;;86.03;31.75;;;;;;;4.03;100.00;100959.03;4961394;28;20034;-78
2021/01/11 09:50:10;;;;;;;85.70;31.38;;;;;;;3.99;100.00;100944.78;4949278;29;20036;-80
2021/01/11 09:52:36;;;;;;;93.72;32.63;;;;;;;4.01;100.00;100939.91;4931466;29;20055;-77
2021/01/11 09:55:03;;;;;;;89.40;31.88;;;;;;;4.07;100.00;100950.16;4926860;29;20034;-81
2021/01/11 09:57:33;;;;;;;85.03;31.52;;;;;;;4.05;100.00;100944.34;4938983;28;20058;-81
2021/01/11 09:59:59;;;;;;;89.00;31.42;;;;;;;4.11;100.00;100947.66;4942595;29;20059;-81
2021/01/11 10:02:24;;;;;;;95.07;32.97;;;;;;;4.03;100.00;100943.84;4932934;29;20031;-79
2021/01/11 10:04:50;;;;;;;88.60;30.90;;;;;;;3.80;100.00;100941.47;4935889;29;20059;-79
2021/01/11 10:07:18;;;;;;;98.00;32.80;;;;;;;3.94;100.00;100945.66;4959131;28;20047;-78
2021/01/11 10:09:44;;;;;;;90.10;31.83;;;;;;;3.98;100.00;100935.19;4934324;29;20405;-79
2021/01/11 10:12:09;;;;;;;100.47;34.20;;;;;;;4.04;100.00;100936.66;4935462;29;20098;-79
2021/01/11 10:14:35;;;;;;;98.78;33.92;;;;;;;4.10;100.00;100940.75;4964217;28;20497;-79
2021/01/11 10:17:01;;;;;;;97.95;33.05;;;;;;;4.11;100.00;100934.34;4947583;29;20067;-78
2021/01/11 10:19:28;;;;;;;99.65;32.40;;;;;;;4.09;100.00;100926.66;4947268;29;20035;-80
2021/01/11 10:21:56;;;;;;;99.47;30.80;;;;;;;4.01;100.00;100930.03;4944714;29;20094;-78
2021/01/11 10:24:23;;;;;;;91.78;30.48;;;;;;;3.93;100.00;100920.13;4943864;29;20938;-80
2021/01/11 10:26:50;;;;;;;94.05;32.17;;;;;;;3.94;100.00;100919.03;4952728;29;20133;-80
2021/01/11 10:29:21;;;;;;;88.10;30.08;;;;;;;4.08;100.00;100916.31;4946544;29;20031;-79
2021/01/11 10:31:47;;;;;;;90.78;30.30;;;;;;;4.06;100.00;100915.81;4953344;29;20032;-80
2021/01/11 10:34:13;;;;;;;87.22;29.02;;;;;;;4.05;100.00;100904.38;4934015;29;20123;-79
2021/01/11 10:36:47;;;;;;;83.53;27.95;;;;;;;4.01;100.00;100902.59;4948554;29;20773;-79
2021/01/11 10:39:33;;;;;;;95.15;31.00;;;;;;;4.11;100.00;100905.81;4947040;29;20800;-79
2021/01/11 10:41:58;;;;;;;79.22;26.70;;;;;;;4.11;100.00;100894.38;4937580;29;20063;-79
2021/01/11 10:44:34;;;;;;;88.60;29.40;;;;;;;4.06;100.00;100897.16;4895731;29;20092;-77
2021/01/11 10:47:02;;;;;;;86.18;28.55;;;;;;;4.15;100.00;100890.78;4915556;29;20047;-79
2021/01/11 10:49:31;;;;;;;79.50;28.15;;;;;;;4.04;100.00;100884.16;4913070;29;20040;-79
2021/01/11 10:51:58;;;;;;;88.93;29.73;;;;;;;4.10;100.00;100884.81;4913000;29;20060;-78
2021/01/11 10:54:25;;;;;;;77.22;27.83;;;;;;;4.05;100.00;100890.25;4906446;29;20035;-77
2021/01/11 10:56:51;;;;;;;83.38;27.70;;;;;;;4.02;100.00;100874.91;4916776;29;20044;-78
2021/01/11 10:59:18;;;;;;;76.35;26.65;;;;;;;3.99;100.00;100867.53;4915823;29;20044;-78
2021/01/11 11:01:43;;;;;;;74.10;26.52;;;;;;;3.95;100.00;100866.56;4900211;29;20043;-78
2021/01/11 11:04:11;;;;;;;78.43;28.10;;;;;;;3.98;100.00;100863.28;4903824;29;20115;-79
2021/01/11 11:06:36;;;;;;;81.45;27.30;;;;;;;4.05;100.00;100852.97;4924566;29;20231;-78
2021/01/11 11:09:03;;;;;;;82.80;27.83;;;;;;;4.09;100.00;100852.06;4909420;29;20096;-78
2021/01/11 11:11:28;;;;;;;84.55;28.45;;;;;;;3.98;100.00;100852.63;4919310;29;20035;-78
2021/01/11 11:13:54;;;;;;;81.25;27.50;;;;;;;3.98;100.00;100852.63;4918375;29;20099;-79
2021/01/11 11:16:19;;;;;;;85.22;28.48;;;;;;;4.08;100.00;100847.03;4932241;29;20093;-78
2021/01/11 11:18:45;;;;;;;83.18;27.52;;;;;;;4.00;100.00;100845.09;4931964;29;20055;-77